Time;durP1;ratioP1;P1;durP2;ratioP2;P2;SDS_P1;SDS_P2;PMS_P1;PMS_P2;Temp;Humidity;BMP_temperature;BMP_pressure;BME280_temperature;BME280_humidity;BME280_pressure;Samples;Min_cycle;Max_cycle;Signal;HPM_P1;HPM_P2
2022/08/15 00:01:38;;;;;;;11.48;10.27;;;;;;;22.91;62.46;100066.13;5085796;28;20142;-75
2022/08/15 00:04:08;;;;;;;12.60;10.50;;;;;;;22.93;62.20;100068.63;5086085;27;20499;-75
2022/08/15 00:06:38;;;;;;;11.88;10.55;;;;;;;23.06;62.02;100072.38;5086835;27;20047;-76
2022/08/15 00:09:11;;;;;;;11.95;10.65;;;;;;;22.89;62.77;100067.31;5084517;27;20500;-76
2022/08/15 00:11:40;;;;;;;13.48;10.93;;;;;;;22.93;62.70;100076.66;5087999;27;20097;-76
2022/08/15 00:14:09;;;;;;;13.80;10.85;;;;;;;22.87;63.25;100080.88;5086483;28;20109;-76
2022/08/15 00:16:38;;;;;;;15.30;11.18;;;;;;;23.03;62.63;100080.75;5085812;28;20048;-75
2022/08/15 00:19:08;;;;;;;12.18;10.88;;;;;;;22.96;62.66;100074.44;5085075;28;20044;-75
2022/08/15 00:21:35;;;;;;;12.27;10.45;;;;;;;22.72;63.14;100075.41;5087060;28;20510;-75
2022/08/15 00:24:02;;;;;;;11.77;10.48;;;;;;;22.74;62.51;100075.22;5084851;27;20093;-76
2022/08/15 00:26:30;;;;;;;16.83;9.80;;;;;;;22.66;63.48;100075.22;5085149;28;20036;-76
2022/08/15 00:28:56;;;;;;;11.50;9.60;;;;;;;22.75;62.84;100072.38;5086589;28;20092;-76
2022/08/15 00:31:23;;;;;;;11.32;9.82;;;;;;;22.85;61.98;100066.81;5084739;28;20104;-76
2022/08/15 00:33:50;;;;;;;12.35;10.55;;;;;;;22.82;62.05;100066.34;5085694;28;20408;-76
2022/08/15 00:36:17;;;;;;;13.43;10.20;;;;;;;22.76;62.17;100068.69;5087454;28;20085;-76
2022/08/15 00:38:44;;;;;;;12.90;10.38;;;;;;;22.78;62.30;100052.50;5084615;28;20048;-76
2022/08/15 00:44:16;;;;;;;11.65;8.98;;;;;;;22.96;61.45;100050.38;5049152;28;20515;-76
2022/08/15 00:46:45;;;;;;;12.75;10.02;;;;;;;22.89;61.01;100048.59;5078613;28;20067;-76
2022/08/15 00:49:13;;;;;;;12.40;9.48;;;;;;;22.81;60.84;100041.44;5084155;28;20040;-76
2022/08/15 00:51:45;;;;;;;13.80;9.73;;;;;;;22.53;62.00;100045.56;5084307;28;20044;-76
2022/08/15 00:54:15;;;;;;;11.23;9.73;;;;;;;22.27;62.48;100049.31;5066599;28;20045;-76
2022/08/15 00:56:46;;;;;;;10.85;9.60;;;;;;;22.45;61.83;100048.25;5087311;27;20566;-76
2022/08/15 00:59:18;;;;;;;12.03;9.57;;;;;;;22.47;62.10;100038.25;5087416;28;20599;-75
2022/08/15 01:01:46;;;;;;;12.98;9.57;;;;;;;22.59;61.71;100045.69;5084813;28;20052;-76
2022/08/15 01:04:14;;;;;;;12.40;9.38;;;;;;;22.60;61.55;100038.50;5088200;27;20491;-76
2022/08/15 01:06:41;;;;;;;12.88;9.13;;;;;;;22.64;61.50;100042.50;5082623;28;20120;-75
2022/08/15 01:09:09;;;;;;;11.05;9.32;;;;;;;22.75;60.89;100037.63;5083688;28;20102;-75
2022/08/15 01:11:41;;;;;;;12.95;9.55;;;;;;;22.67;61.27;100037.69;5084859;28;20052;-75
2022/08/15 01:14:08;;;;;;;;;;;;;;;22.74;60.70;100037.81;5074450;28;20044;-75
2022/08/15 01:16:38;;;;;;;12.70;9.35;;;;;;;22.70;61.18;100041.81;5084035;28;19924;-75
2022/08/15 01:19:18;;;;;;;14.65;10.15;;;;;;;22.75;60.75;100028.78;5083853;28;20044;-76
2022/08/15 01:22:10;;;;;;;12.70;9.05;;;;;;;22.59;61.00;100031.50;5086300;28;20047;-75
2022/08/15 01:24:49;;;;;;;13.75;8.85;;;;;;;22.62;60.96;100025.78;5081131;28;20112;-75
2022/08/15 01:27:16;;;;;;;11.48;8.80;;;;;;;22.73;60.35;100030.78;5084938;27;20052;-75
2022/08/15 01:29:43;;;;;;;10.90;9.18;;;;;;;22.68;60.42;100031.34;5085292;27;20042;-75
2022/08/15 01:32:10;;;;;;;11.68;9.23;;;;;;;22.89;59.52;100025.38;5084838;27;20044;-75
2022/08/15 01:34:37;;;;;;;11.57;9.18;;;;;;;22.88;59.59;100031.72;5084543;27;20097;-75
2022/08/15 01:37:03;;;;;;;12.07;8.82;;;;;;;22.89;59.58;100020.03;5086418;27;20048;-75
2022/08/15 01:39:37;;;;;;;12.02;9.48;;;;;;;22.58;59.90;100022.63;5083161;27;20055;-75
2022/08/15 01:42:11;;;;;;;13.35;9.40;;;;;;;22.57;60.19;100014.81;5084906;27;20044;-76
2022/08/15 01:44:44;;;;;;;11.13;8.82;;;;;;;22.62;60.13;100017.78;5084175;28;20094;-76
2022/08/15 01:47:18;;;;;;;11.23;9.00;;;;;;;22.62;60.02;100012.44;5085713;28;20044;-75
2022/08/15 01:49:52;;;;;;;11.57;9.00;;;;;;;22.42;60.85;100011.19;5084816;28;20101;-75
2022/08/15 01:52:20;;;;;;;11.13;8.85;;;;;;;22.29;61.14;100007.22;5073291;28;20048;-75
2022/08/15 01:54:47;;;;;;;10.85;8.88;;;;;;;22.21;61.26;100009.91;5064898;28;20040;-75
2022/08/15 01:57:15;;;;;;;12.85;8.57;;;;;;;21.96;61.84;100013.66;5058533;27;20032;-75
2022/08/15 01:59:42;;;;;;;10.27;9.00;;;;;;;21.77;63.10;100008.63;5080742;27;20067;-75
2022/08/15 02:02:12;;;;;;;10.38;8.60;;;;;;;21.88;62.62;100007.47;5084954;27;20613;-75
2022/08/15 02:04:42;;;;;;;11.15;8.75;;;;;;;22.07;62.12;100015.97;5083786;27;20044;-75
2022/08/15 02:07:12;;;;;;;14.05;9.63;;;;;;;22.11;62.01;100008.44;5085690;27;20135;-75
2022/08/15 02:09:40;;;;;;;10.57;9.25;;;;;;;21.97;62.70;100009.97;5074862;27;20131;-75
2022/08/15 02:12:08;;;;;;;10.93;8.65;;;;;;;21.88;62.67;100005.63;5083247;27;20056;-75
2022/08/15 02:14:38;;;;;;;11.30;8.50;;;;;;;22.02;62.65;100021.00;5087420;28;20096;-75
2022/08/15 02:17:05;;;;;;;13.30;8.80;;;;;;;22.17;61.99;100016.59;5089984;28;20051;-75
2022/08/15 02:19:31;;;;;;;11.13;9.65;;;;;;;21.74;63.25;100017.81;5086171;28;20058;-75
2022/08/15 02:21:58;;;;;;;17.42;9.27;;;;;;;21.63;63.92;100009.31;5088163;27;20101;-75
2022/08/15 02:24:25;;;;;;;11.63;8.90;;;;;;;21.92;63.14;100006.97;5076329;28;20044;-75
2022/08/15 02:26:53;;;;;;;12.75;9.10;;;;;;;22.04;63.17;100013.63;5106870;27;20070;-75
2022/08/15 02:29:22;;;;;;;14.60;9.70;;;;;;;21.96;63.47;100007.47;5107182;27;20039;-75
2022/08/15 02:31:51;;;;;;;11.95;8.93;;;;;;;22.01;63.43;100008.66;5108995;27;20051;-75
2022/08/15 02:34:19;;;;;;;11.77;9.52;;;;;;;22.15;62.88;99999.09;5108320;27;20051;-75
2022/08/15 02:36:46;;;;;;;10.60;8.82;;;;;;;22.39;61.92;99995.53;5108779;27;20450;-75
2022/08/15 02:39:12;;;;;;;15.13;9.48;;;;;;;22.42;61.66;100009.34;5108767;27;20047;-75
2022/08/15 02:41:42;;;;;;;14.15;9.23;;;;;;;22.40;61.36;100007.84;5091542;27;20040;-75
2022/08/15 02:44:11;;;;;;;9.77;8.80;;;;;;;22.35;61.94;100005.72;5086887;28;20109;-75
2022/08/15 02:46:39;;;;;;;12.10;9.55;;;;;;;22.20;62.60;100010.94;5087505;27;20048;-75
2022/08/15 02:49:11;;;;;;;10.10;9.10;;;;;;;22.16;62.85;100001.59;5088713;27;20048;-76
2022/08/15 02:51:38;;;;;;;13.52;9.75;;;;;;;22.36;62.00;100007.34;5077123;27;20058;-75
2022/08/15 02:54:05;;;;;;;12.20;9.73;;;;;;;22.33;62.37;100002.38;5085337;27;20500;-75
2022/08/15 02:56:33;;;;;;;16.63;9.77;;;;;;;22.24;62.88;100004.25;5087572;28;20048;-75
2022/08/15 02:59:00;;;;;;;11.27;9.13;;;;;;;22.34;62.16;100009.38;5087555;28;20260;-75
2022/08/15 03:01:27;;;;;;;12.63;9.20;;;;;;;22.20;62.29;100010.94;5085798;28;20089;-75
2022/08/15 03:03:55;;;;;;;12.90;9.73;;;;;;;22.16;62.42;100019.47;5086910;27;20048;-75
2022/08/15 03:06:26;;;;;;;12.10;9.23;;;;;;;22.24;62.11;100006.09;5088372;27;20121;-75
2022/08/15 03:08:58;;;;;;;14.00;9.18;;;;;;;22.14;61.88;100008.09;5085918;27;20089;-75
2022/08/15 03:11:25;;;;;;;13.60;9.25;;;;;;;22.21;61.52;100015.25;5082288;27;20403;-75
2022/08/15 03:13:51;;;;;;;10.75;9.45;;;;;;;22.09;61.97;100005.13;5078943;27;20040;-75
2022/08/15 03:16:17;;;;;;;13.48;9.43;;;;;;;22.17;62.05;100007.78;5088810;28;20040;-75
2022/08/15 03:18:44;;;;;;;13.23;9.40;;;;;;;22.04;62.38;100008.28;5085762;28;20048;-75
2022/08/15 03:21:14;;;;;;;10.13;8.90;;;;;;;22.10;62.19;100002.25;5087885;28;20044;-75
2022/08/15 03:23:48;;;;;;;11.85;9.13;;;;;;;22.01;62.48;100003.31;5086421;27;20062;-76
2022/08/15 03:26:16;;;;;;;12.20;9.68;;;;;;;22.00;62.91;100006.13;5077670;28;20051;-76
2022/08/15 03:28:42;;;;;;;15.40;9.88;;;;;;;22.16;62.37;100003.44;5086320;28;20040;-76
2022/08/15 03:31:08;;;;;;;13.75;9.48;;;;;;;22.27;62.41;99997.72;5087813;28;20044;-76
2022/08/15 03:33:37;;;;;;;15.63;10.73;;;;;;;21.68;64.63;100007.81;5086702;28;20098;-76
2022/08/15 03:36:05;;;;;;;13.43;9.73;;;;;;;21.33;66.02;99992.97;5085838;27;20109;-76
2022/08/15 03:38:32;;;;;;;15.90;10.35;;;;;;;21.46;65.81;99992.50;5087193;27;20044;-76
2022/08/15 03:41:00;;;;;;;10.77;8.98;;;;;;;21.51;66.09;99994.63;5086914;27;20048;-76
2022/08/15 03:43:29;;;;;;;12.63;9.23;;;;;;;21.68;65.68;99990.97;5085512;27;20048;-75
2022/08/15 03:45:58;;;;;;;11.48;9.05;;;;;;;21.76;65.33;99985.63;5086878;28;20120;-76
2022/08/15 03:48:27;;;;;;;11.25;9.20;;;;;;;21.98;64.95;99992.97;5087855;28;20506;-75
2022/08/15 03:50:55;;;;;;;11.27;9.48;;;;;;;21.98;64.57;99992.13;5084696;28;20048;-75
2022/08/15 03:53:21;;;;;;;10.70;9.43;;;;;;;22.04;64.18;99986.09;5086535;27;20040;-75
2022/08/15 03:55:48;;;;;;;11.02;9.35;;;;;;;22.07;63.99;99993.75;5086851;27;20044;-75
2022/08/15 03:58:16;;;;;;;12.88;9.52;;;;;;;22.10;63.68;99986.25;5084931;28;20051;-75
2022/08/15 04:00:46;;;;;;;15.73;10.30;;;;;;;22.10;64.29;99983.56;5085385;28;20388;-76
2022/08/15 04:03:16;;;;;;;15.07;9.73;;;;;;;22.05;64.59;99983.28;5086937;27;20048;-76
2022/08/15 04:05:50;;;;;;;12.30;9.60;;;;;;;22.20;63.78;99984.22;5077168;27;20040;-76
2022/08/15 04:08:18;;;;;;;14.45;10.27;;;;;;;22.23;63.95;99983.03;5071641;28;20048;-76
2022/08/15 04:10:46;;;;;;;10.73;9.48;;;;;;;22.21;63.96;99977.88;5079007;27;20054;-76
2022/08/15 04:13:13;;;;;;;14.60;10.20;;;;;;;22.26;64.00;99980.88;5086225;27;20043;-76
2022/08/15 04:15:41;;;;;;;11.70;9.93;;;;;;;22.33;63.78;99973.81;5087480;28;20044;-75
2022/08/15 04:18:09;;;;;;;19.13;10.07;;;;;;;22.20;64.04;99965.53;5085677;27;20044;-75
2022/08/15 04:20:36;;;;;;;12.45;10.80;;;;;;;22.12;64.58;99978.91;5085181;27;20040;-75
2022/08/15 04:23:03;;;;;;;14.23;9.88;;;;;;;22.31;65.15;99977.69;5087301;27;20069;-75
2022/08/15 04:25:32;;;;;;;11.15;9.90;;;;;;;22.40;64.22;99970.44;5085198;28;20462;-75
2022/08/15 04:28:03;;;;;;;14.10;10.40;;;;;;;22.34;63.97;99977.34;5085136;28;20048;-75
2022/08/15 04:30:32;;;;;;;14.05;10.35;;;;;;;22.41;63.74;99975.63;5084584;27;20055;-75
2022/08/15 04:33:09;;;;;;;14.18;11.02;;;;;;;22.68;62.71;99969.03;5071394;27;20056;-75
2022/08/15 04:35:36;;;;;;;13.55;10.38;;;;;;;22.92;63.30;99965.34;5078329;27;20047;-75
2022/08/15 04:38:02;;;;;;;12.07;10.43;;;;;;;23.03;62.90;99963.13;5084805;27;20112;-75
2022/08/15 04:40:30;;;;;;;12.75;10.23;;;;;;;23.15;62.89;99976.91;5086636;27;20051;-76
2022/08/15 04:42:58;;;;;;;12.30;10.20;;;;;;;23.18;62.70;99980.06;5065382;28;20050;-76
2022/08/15 04:45:25;;;;;;;15.32;9.68;;;;;;;23.24;62.38;99991.91;5072696;28;20079;-75
2022/08/15 04:47:52;;;;;;;13.25;10.02;;;;;;;23.20;62.86;99987.91;5085684;28;20461;-75
2022/08/15 04:50:20;;;;;;;11.45;9.73;;;;;;;23.34;61.58;99983.63;5086804;28;20044;-75
2022/08/15 04:52:51;;;;;;;10.88;9.32;;;;;;;23.48;61.60;99994.41;5085140;27;20529;-75
2022/08/15 04:55:19;;;;;;;13.13;9.88;;;;;;;23.53;61.70;99996.53;5085377;27;20047;-75
2022/08/15 04:57:46;;;;;;;13.20;9.52;;;;;;;23.73;61.21;99992.34;5086508;28;20131;-75
2022/08/15 05:00:16;;;;;;;10.68;9.57;;;;;;;23.95;60.29;99990.59;5083409;28;20048;-75
2022/08/15 05:02:43;;;;;;;11.68;9.25;;;;;;;23.75;61.35;99998.34;5085120;28;20526;-75
2022/08/15 05:05:11;;;;;;;14.45;10.13;;;;;;;23.57;61.59;99992.50;5086811;28;20044;-75
2022/08/15 05:07:38;;;;;;;15.57;9.50;;;;;;;23.68;61.87;99989.38;5083733;28;20059;-75
2022/08/15 05:10:08;;;;;;;17.02;9.95;;;;;;;23.84;61.94;99991.88;5082145;27;20052;-75
2022/08/15 05:12:36;;;;;;;12.13;9.38;;;;;;;24.34;61.06;99995.75;5084121;27;20067;-75
2022/08/15 05:15:04;;;;;;;10.77;9.68;;;;;;;24.90;59.34;99992.38;5086328;28;20069;-75
2022/08/15 05:17:30;;;;;;;15.23;9.27;;;;;;;25.30;58.60;99982.03;5084880;28;20093;-75
2022/08/15 05:19:57;;;;;;;11.88;8.65;;;;;;;25.61;57.66;99980.69;5083028;27;20097;-75
2022/08/15 05:22:23;;;;;;;11.73;9.73;;;;;;;25.92;56.36;99976.78;5078404;27;20048;-75
2022/08/15 05:24:51;;;;;;;12.70;9.82;;;;;;;25.55;56.72;99980.63;5095989;28;20090;-75
2022/08/15 05:27:18;;;;;;;13.65;9.80;;;;;;;25.55;56.74;99972.56;5088505;28;20512;-75
2022/08/15 05:29:44;;;;;;;12.52;8.85;;;;;;;25.17;58.72;99974.66;5085836;28;20047;-75
2022/08/15 05:32:11;;;;;;;11.63;9.63;;;;;;;25.78;56.36;99970.50;5078051;27;20049;-75
2022/08/15 05:34:37;;;;;;;13.02;9.02;;;;;;;25.86;58.00;99972.19;5063565;28;20475;-76
2022/08/15 05:37:04;;;;;;;11.32;9.60;;;;;;;25.40;58.94;99966.44;5081538;27;20107;-76
2022/08/15 05:39:33;;;;;;;10.43;8.93;;;;;;;25.52;59.27;99959.53;5084319;27;20498;-76
2022/08/15 05:42:11;;;;;;;11.23;8.77;;;;;;;26.10;57.47;99969.88;5072308;27;20045;-75
2022/08/15 05:44:45;;;;;;;12.95;10.38;;;;;;;26.34;57.45;99962.38;5064158;28;20060;-75
2022/08/15 05:47:19;;;;;;;11.52;9.55;;;;;;;26.65;55.50;99960.03;5083142;28;20496;-75
2022/08/15 05:49:53;;;;;;;13.10;9.48;;;;;;;26.48;55.79;99956.88;5087000;28;20044;-75
2022/08/15 05:52:31;;;;;;;10.70;9.60;;;;;;;26.85;54.75;99952.06;5059311;28;20045;-75
2022/08/15 05:55:09;;;;;;;12.25;9.15;;;;;;;26.86;54.27;99949.16;5070392;28;20044;-75
2022/08/15 05:57:49;;;;;;;16.70;10.23;;;;;;;26.57;55.41;99960.19;5067595;28;20040;-75
2022/08/15 06:00:17;;;;;;;12.65;9.43;;;;;;;26.35;56.50;99946.03;5088782;28;20047;-76
2022/08/15 06:02:48;;;;;;;14.45;9.63;;;;;;;25.97;56.93;99961.75;5089765;28;20625;-76
2022/08/15 06:05:21;;;;;;;16.30;9.63;;;;;;;25.67;57.76;99973.72;5087795;28;20044;-75
2022/08/15 06:07:50;;;;;;;15.15;9.40;;;;;;;26.11;57.03;99962.66;5087628;28;20495;-75
2022/08/15 06:10:25;;;;;;;16.90;9.43;;;;;;;26.60;55.66;99965.19;5088440;28;20514;-75
2022/08/15 06:12:59;;;;;;;16.45;9.65;;;;;;;26.74;54.61;99966.88;5090041;28;20047;-76
2022/08/15 06:15:29;;;;;;;14.75;10.30;;;;;;;27.01;53.31;99968.63;5085694;28;20040;-76
2022/08/15 06:17:58;;;;;;;11.57;9.32;;;;;;;26.76;54.16;99970.19;5071350;28;20448;-76
2022/08/15 06:20:32;;;;;;;13.73;9.95;;;;;;;26.33;55.06;99980.38;5068018;28;20453;-76
2022/08/15 06:23:06;;;;;;;11.82;8.75;;;;;;;26.48;54.68;99970.31;5067241;28;20148;-76
2022/08/15 06:25:41;;;;;;;11.88;9.38;;;;;;;26.33;55.31;99975.00;5068537;28;20067;-76
2022/08/15 06:28:26;;;;;;;12.82;9.43;;;;;;;25.43;57.44;99968.72;5087340;28;20089;-76
2022/08/15 06:31:02;;;;;;;20.63;9.38;;;;;;;25.38;58.02;99972.00;5088332;28;20527;-76
2022/08/15 06:33:36;;;;;;;11.85;8.45;;;;;;;25.74;57.13;99979.13;5088195;28;20480;-76
2022/08/15 06:36:10;;;;;;;13.23;8.65;;;;;;;25.85;57.13;99974.06;5088850;28;20051;-76
2022/08/15 06:38:44;;;;;;;11.13;8.75;;;;;;;25.60;57.43;99972.84;5069891;28;20385;-76
2022/08/15 06:41:20;;;;;;;12.73;9.57;;;;;;;25.65;57.42;99976.59;5078364;28;20074;-76
2022/08/15 06:43:48;;;;;;;11.48;8.75;;;;;;;25.30;58.67;99974.81;5072793;28;20492;-76
2022/08/15 06:46:14;;;;;;;11.57;8.82;;;;;;;25.39;58.82;99972.81;5087579;28;20487;-75
2022/08/15 06:48:43;;;;;;;10.43;8.52;;;;;;;25.71;57.69;99977.66;5088009;28;20044;-76
2022/08/15 06:51:12;;;;;;;10.75;8.57;;;;;;;25.91;57.07;99975.94;5089693;28;20040;-76
2022/08/15 06:53:44;;;;;;;11.48;8.65;;;;;;;25.90;56.46;99984.22;5087652;28;20044;-76
2022/08/15 06:56:18;;;;;;;14.98;8.57;;;;;;;26.15;55.91;99980.88;5087377;28;20071;-76
2022/08/15 06:58:52;;;;;;;13.57;8.82;;;;;;;26.37;55.28;99973.56;5086879;28;20446;-76
2022/08/15 07:01:33;;;;;;;12.23;8.45;;;;;;;26.45;55.86;99968.03;5087585;28;20040;-76
2022/08/15 07:04:10;;;;;;;17.48;9.18;;;;;;;25.78;56.81;99967.81;5059774;28;20106;-76
2022/08/15 07:06:42;;;;;;;12.50;8.57;;;;;;;26.50;55.74;99964.72;5067565;28;20049;-76
2022/08/15 07:09:30;;;;;;;12.85;8.70;;;;;;;26.97;53.80;99959.34;5066829;28;20067;-76
2022/08/15 07:12:02;;;;;;;13.40;10.02;;;;;;;27.17;53.89;99955.81;5080033;27;20052;-76
2022/08/15 07:14:44;;;;;;;11.80;8.82;;;;;;;27.43;53.90;99958.53;5087308;27;20048;-76
2022/08/15 07:17:15;;;;;;;11.40;8.63;;;;;;;27.68;53.70;99953.41;5087739;28;20040;-76
2022/08/15 07:19:42;;;;;;;15.13;9.80;;;;;;;28.17;52.54;99952.91;5085741;27;20048;-76
2022/08/15 07:22:09;;;;;;;12.70;9.20;;;;;;;27.89;53.46;99943.22;5087410;27;20048;-75
2022/08/15 07:24:36;;;;;;;11.05;9.00;;;;;;;28.12;53.02;99950.03;5067460;28;20047;-75
2022/08/15 07:27:09;;;;;;;11.40;8.90;;;;;;;28.66;52.23;99942.34;5085439;28;20048;-75
2022/08/15 07:29:44;;;;;;;17.63;9.02;;;;;;;28.64;53.10;99946.31;5077001;27;20048;-76
2022/08/15 07:32:14;;;;;;;13.02;9.32;;;;;;;29.23;50.14;99957.56;5089041;28;20052;-75
2022/08/15 07:34:56;;;;;;;12.88;8.70;;;;;;;29.26;51.68;99954.47;5071714;27;20045;-76
2022/08/15 07:37:23;;;;;;;12.32;8.48;;;;;;;29.19;49.48;99952.84;5075437;27;20048;-76
2022/08/15 07:39:59;;;;;;;12.43;9.05;;;;;;;29.90;50.00;99946.03;5085098;28;20055;-76
2022/08/15 07:42:27;;;;;;;14.20;8.32;;;;;;;30.17;47.70;99952.00;5080710;28;20094;-75
2022/08/15 07:44:59;;;;;;;13.45;7.93;;;;;;;29.58;47.20;99955.25;5066625;28;20053;-75
2022/08/15 07:47:28;;;;;;;13.75;8.43;;;;;;;29.51;48.40;99946.38;5086104;28;20100;-75
2022/08/15 07:50:03;;;;;;;13.15;7.80;;;;;;;30.46;45.60;99939.59;5086697;28;20052;-75
2022/08/15 07:52:31;;;;;;;11.70;7.60;;;;;;;30.07;46.42;99949.00;5087410;27;20113;-75
2022/08/15 07:55:11;;;;;;;10.13;8.18;;;;;;;29.48;47.16;99955.78;5086493;27;20070;-76
2022/08/15 07:57:41;;;;;;;12.75;7.95;;;;;;;30.27;47.53;99948.75;5090678;28;20466;-75
2022/08/15 08:00:16;;;;;;;13.55;8.23;;;;;;;30.67;44.45;99949.13;5086747;27;20059;-75
2022/08/15 08:02:50;;;;;;;13.73;8.43;;;;;;;31.45;43.38;99949.84;5085546;27;20130;-75
2022/08/15 08:05:17;;;;;;;9.98;7.85;;;;;;;32.10;42.10;99941.66;5086848;27;20040;-75
2022/08/15 08:07:47;;;;;;;13.90;8.63;;;;;;;32.31;40.58;99949.16;5083564;27;20109;-76
2022/08/15 08:10:21;;;;;;;11.10;7.80;;;;;;;31.45;41.39;99946.34;5090836;28;20456;-76
2022/08/15 08:13:04;;;;;;;12.75;7.13;;;;;;;31.16;43.12;99945.31;5076241;28;20048;-76
2022/08/15 08:15:41;;;;;;;11.48;7.03;;;;;;;31.01;44.62;99944.91;5075476;28;20093;-76
2022/08/15 08:18:17;;;;;;;9.38;7.03;;;;;;;32.45;41.57;99931.53;5085586;28;20040;-76
2022/08/15 08:20:50;;;;;;;9.13;6.88;;;;;;;33.95;37.50;99933.63;5055406;28;20049;-76
2022/08/15 08:23:22;;;;;;;12.00;7.07;;;;;;;32.73;39.55;99931.59;5077625;27;20040;-76
2022/08/15 08:26:01;;;;;;;9.48;6.75;;;;;;;32.88;38.95;99931.03;5077570;28;20672;-76
2022/08/15 08:28:35;;;;;;;12.13;7.20;;;;;;;32.74;38.39;99921.56;5085506;28;20086;-74
2022/08/15 08:31:17;;;;;;;12.73;6.35;;;;;;;32.09;39.68;99923.72;5085316;28;20073;-74
2022/08/15 08:33:55;;;;;;;7.45;6.10;;;;;;;31.91;41.17;99913.00;5085430;28;20052;-75
2022/08/15 08:36:28;;;;;;;9.77;6.35;;;;;;;32.91;39.13;99914.25;5084664;28;20044;-75
2022/08/15 08:39:07;;;;;;;10.25;6.63;;;;;;;33.91;37.21;99911.56;5085963;28;20048;-75
2022/08/15 08:41:42;;;;;;;6.78;6.03;;;;;;;33.46;37.95;99919.00;5085320;27;20495;-75
2022/08/15 08:44:23;;;;;;;9.23;5.90;;;;;;;32.33;38.46;99918.03;5084488;27;20097;-76
2022/08/15 08:47:10;;;;;;;10.40;6.13;;;;;;;31.18;40.83;99921.56;5084905;27;20040;-76
2022/08/15 08:49:44;;;;;;;10.85;6.72;;;;;;;30.54;42.63;99917.66;5084509;27;20066;-75
2022/08/15 08:52:19;;;;;;;12.48;6.78;;;;;;;30.90;41.22;99916.72;5081841;27;20089;-75
2022/08/15 08:54:57;;;;;;;12.43;6.70;;;;;;;30.88;41.98;99914.25;5078703;27;20044;-75
2022/08/15 08:57:29;;;;;;;8.85;6.35;;;;;;;30.33;42.14;99910.00;5085303;28;20039;-75
2022/08/15 09:00:00;;;;;;;10.75;6.45;;;;;;;31.16;40.92;99912.81;5084756;28;20611;-75
2022/08/15 09:02:34;;;;;;;14.82;6.68;;;;;;;31.52;39.79;99911.81;5085941;28;20131;-75
2022/08/15 09:05:07;;;;;;;9.82;6.22;;;;;;;32.13;40.38;99905.91;5085847;28;20047;-75
2022/08/15 09:07:39;;;;;;;8.43;5.93;;;;;;;32.67;39.30;99908.09;5085573;28;20130;-75
2022/08/15 09:10:08;;;;;;;8.98;6.35;;;;;;;33.13;37.41;99901.63;5084376;28;20051;-75
2022/08/15 09:15:26;;;;;;;9.80;5.70;;;;;;;33.42;36.09;99901.53;5069924;28;20050;-75
2022/08/15 09:17:59;;;;;;;10.95;5.70;;;;;;;33.56;36.21;99902.84;5084784;28;20698;-75
2022/08/15 09:20:31;;;;;;;9.88;6.05;;;;;;;34.21;36.18;99900.28;5082426;28;20048;-75
2022/08/15 09:22:57;;;;;;;;;;;;;;;35.58;35.50;99889.63;5087583;27;20123;-76
2022/08/15 09:25:24;;;;;;;8.23;5.47;;;;;;;36.13;32.03;99892.97;5084945;28;19933;-76
2022/08/15 09:28:00;;;;;;;7.55;5.53;;;;;;;36.01;30.98;99893.16;5084240;28;20495;-76
2022/08/15 09:30:28;;;;;;;8.23;5.20;;;;;;;36.13;32.24;99896.53;5082610;28;20066;-75
2022/08/15 09:33:10;;;;;;;7.50;5.45;;;;;;;36.51;31.73;99887.09;5084017;27;20048;-75
2022/08/15 09:35:52;;;;;;;9.60;5.20;;;;;;;36.49;29.93;99892.81;5092589;27;20464;-75
2022/08/15 09:38:38;;;;;;;9.60;5.25;;;;;;;36.23;31.83;99888.38;5084868;27;20043;-75
2022/08/15 09:41:34;;;;;;;8.90;5.63;;;;;;;36.78;31.34;99886.88;5084787;27;20522;-75
2022/08/15 09:44:12;;;;;;;12.25;5.88;;;;;;;35.55;32.84;99895.59;5072127;28;20044;-75
2022/08/15 09:46:53;;;;;;;13.75;6.47;;;;;;;35.03;35.03;99883.75;5085196;28;20048;-75
2022/08/15 09:49:43;;;;;;;12.82;7.22;;;;;;;35.91;31.87;99887.66;5083637;28;20040;-75
2022/08/15 09:52:19;;;;;;;10.93;5.70;;;;;;;35.75;33.33;99883.19;5081035;28;20153;-75
2022/08/15 09:54:49;;;;;;;7.07;6.07;;;;;;;35.53;32.05;99886.03;5082903;28;20040;-75
2022/08/15 09:57:30;;;;;;;9.35;6.43;;;;;;;34.80;34.66;99881.34;5082481;28;20610;-75
2022/08/15 10:00:00;;;;;;;8.57;6.45;;;;;;;35.49;33.06;99884.91;5083521;27;20446;-75
2022/08/15 10:02:32;;;;;;;8.05;6.55;;;;;;;35.54;33.30;99876.78;5084130;27;20169;-75
2022/08/15 10:05:26;;;;;;;7.90;6.13;;;;;;;36.17;31.61;99864.06;5082854;27;20047;-75
2022/08/15 10:07:55;;;;;;;8.38;5.85;;;;;;;36.36;31.18;99863.31;5070501;27;20109;-75
2022/08/15 10:10:47;;;;;;;8.55;5.60;;;;;;;34.55;33.49;99862.81;5082400;27;20051;-75
2022/08/15 10:13:28;;;;;;;;;;;;;;;34.84;34.33;99855.22;5080115;28;20101;-75
2022/08/15 10:15:56;;;;;;;10.02;6.38;;;;;;;34.84;33.29;99863.41;5051386;28;19997;-75
2022/08/15 10:18:56;;;;;;;11.30;6.20;;;;;;;33.18;35.45;99860.16;5059241;28;20067;-75
2022/08/15 10:21:32;;;;;;;8.48;6.00;;;;;;;33.65;35.40;99853.28;5056551;28;20051;-75
2022/08/15 10:23:59;;;;;;;11.60;6.78;;;;;;;33.70;35.26;99858.75;5081915;27;20062;-75
2022/08/15 10:26:28;;;;;;;8.10;6.43;;;;;;;32.37;37.19;99850.53;5084985;28;20054;-75
2022/08/15 10:29:05;;;;;;;10.70;6.57;;;;;;;32.50;38.70;99850.22;5083072;28;20052;-75
2022/08/15 10:31:41;;;;;;;19.70;6.65;;;;;;;32.62;37.89;99855.63;5084824;28;20403;-75
2022/08/15 10:34:18;;;;;;;10.27;6.60;;;;;;;32.52;37.66;99850.78;5083130;28;20048;-75
2022/08/15 10:37:05;;;;;;;8.10;6.60;;;;;;;32.22;37.87;99859.19;5086267;28;20440;-75
2022/08/15 10:39:44;;;;;;;8.23;6.25;;;;;;;32.79;36.88;99853.75;5075281;28;20105;-76
2022/08/15 10:42:26;;;;;;;11.55;6.47;;;;;;;33.04;36.83;99856.88;5080421;27;20098;-75
2022/08/15 10:44:58;;;;;;;6.85;6.15;;;;;;;33.04;37.32;99847.91;5060464;28;20049;-75
2022/08/15 10:47:32;;;;;;;9.77;5.78;;;;;;;33.43;36.99;99843.41;5068345;28;20045;-75
2022/08/15 10:50:12;;;;;;;10.30;6.40;;;;;;;33.82;35.65;99836.91;5087887;28;20159;-75
2022/08/15 10:52:55;;;;;;;12.60;6.60;;;;;;;34.74;35.45;99828.72;5081570;28;20127;-75
2022/08/15 10:55:28;;;;;;;10.38;7.00;;;;;;;35.79;33.07;99816.94;5073590;28;20046;-75
2022/08/15 10:57:59;;;;;;;10.30;6.05;;;;;;;36.25;31.88;99812.50;5088326;28;20503;-76
2022/08/15 11:00:51;;;;;;;9.67;6.10;;;;;;;37.00;29.54;99819.97;5086110;28;20457;-76
2022/08/15 11:03:20;;;;;;;8.30;6.20;;;;;;;35.87;30.54;99824.63;5083103;28;20528;-76
2022/08/15 11:05:55;;;;;;;7.00;5.78;;;;;;;35.60;31.20;99822.00;5087568;28;20044;-76
2022/08/15 11:08:23;;;;;;;9.95;5.57;;;;;;;35.31;31.95;99826.19;5088031;28;20412;-76
2022/08/15 11:10:50;;;;;;;9.65;5.65;;;;;;;35.58;31.27;99813.28;5086487;28;20101;-75
2022/08/15 11:13:22;;;;;;;9.85;6.47;;;;;;;34.93;32.53;99810.91;5086423;28;20089;-75
2022/08/15 11:15:54;;;;;;;11.38;5.70;;;;;;;34.58;33.96;99816.84;5086327;27;20052;-75
2022/08/15 11:18:27;;;;;;;7.25;5.63;;;;;;;34.86;34.04;99812.19;5071357;27;20048;-76
2022/08/15 11:21:02;;;;;;;7.28;5.90;;;;;;;35.11;32.21;99807.75;5067339;28;20059;-75
2022/08/15 11:23:33;;;;;;;11.45;6.05;;;;;;;36.23;30.73;99809.22;5086999;27;20052;-75
2022/08/15 11:26:00;;;;;;;10.32;5.72;;;;;;;35.63;32.64;99798.88;5086578;28;20040;-75
2022/08/15 11:28:28;;;;;;;11.50;6.20;;;;;;;35.90;30.28;99805.00;5088321;27;20047;-76
2022/08/15 11:31:01;;;;;;;8.60;5.57;;;;;;;35.67;31.06;99794.53;5086938;27;20063;-75
2022/08/15 11:33:34;;;;;;;7.43;5.53;;;;;;;35.33;31.79;99793.25;5086573;27;20044;-75
2022/08/15 11:36:07;;;;;;;9.90;5.43;;;;;;;35.79;31.19;99797.03;5086005;27;20491;-75
2022/08/15 11:38:38;;;;;;;7.82;5.40;;;;;;;35.89;30.95;99788.88;5086251;27;20414;-75
2022/08/15 11:41:05;;;;;;;9.67;5.83;;;;;;;35.97;30.22;99789.19;5088282;27;20048;-75
2022/08/15 11:43:33;;;;;;;10.55;5.40;;;;;;;35.95;30.20;99791.38;5070570;28;20106;-75
2022/08/15 11:46:00;;;;;;;8.52;5.47;;;;;;;36.27;28.96;99787.66;5080769;28;20070;-75
2022/08/15 11:48:30;;;;;;;10.90;5.32;;;;;;;36.15;29.11;99785.16;5085453;28;20043;-75
2022/08/15 11:51:00;;;;;;;11.70;5.78;;;;;;;35.50;31.18;99789.25;5087322;28;20101;-75